Time,TemperatureF,DewpointF,PressureIn,WindDirection,WindDirectionDegrees,WindSpeedMPH,WindSpeedGustMPH,Humidity,HourlyPrecipIn,Conditions,Clouds,dailyrainin,SolarRadiationWatts/m^2,SoftwareType,DateUTC
2013-06-18 00:01:00,63.9,62.4,29.90,North,9,3.0,4.0,95,0.00,,,0.00,0.0,meteohub,2013-06-18 04:01:00,
2013-06-18 00:02:00,63.7,62.2,29.90,North,5,5.0,5.0,95,0.00,,,0.00,0.0,meteohub,2013-06-18 04:02:00,
2013-06-18 00:07:00,63.7,62.2,29.90,North,5,0.0,5.0,95,0.00,,,0.00,0.0,meteohub,2013-06-18 04:07:00,
2013-06-18 00:13:00,63.5,62.1,29.90,North,5,2.0,5.0,95,0.00,,,0.00,0.0,meteohub,2013-06-18 04:13:00,
2013-06-18 00:18:00,63.5,62.1,29.90,North,5,0.0,5.0,95,0.00,,,0.00,0.0,meteohub,2013-06-18 04:18:00,
2013-06-18 00:23:00,63.5,62.1,29.90,North,5,2.0,3.0,95,0.00,,,0.00,0.0,meteohub,2013-06-18 04:23:00,
2013-06-18 00:28:00,63.3,61.9,29.90,North,5,0.0,3.0,95,0.00,,,0.00,0.0,meteohub,2013-06-18 04:28:00,
2013-06-18 00:33:00,63.3,61.9,29.90,North,5,0.0,4.0,95,0.00,,,0.00,0.0,meteohub,2013-06-18 04:33:00,
2013-06-18 00:38:00,63.3,61.9,29.90,North,5,0.0,4.0,95,0.00,,,0.00,0.0,meteohub,2013-06-18 04:38:00,
2013-06-18 00:43:00,63.3,61.9,29.90,North,5,0.0,4.0,95,0.00,,,0.00,0.0,meteohub,2013-06-18 04:43:00,
2013-06-18 00:48:00,63.1,61.7,29.89,North,5,1.0,1.0,95,0.00,,,0.00,0.0,meteohub,2013-06-18 04:48:00,
2013-06-18 00:53:00,63.0,61.5,29.90,North,5,0.0,1.0,95,0.00,,,0.00,0.0,meteohub,2013-06-18 04:53:00,
2013-06-18 00:59:00,63.0,61.5,29.89,North,5,0.0,2.0,95,0.00,,,0.00,0.0,meteohub,2013-06-18 04:59:00,
2013-06-18 01:04:00,63.0,61.5,29.89,North,5,0.0,2.0,95,0.00,,,0.00,0.0,meteohub,2013-06-18 05:04:00,
2013-06-18 01:09:00,62.8,61.3,29.89,North,5,0.0,2.0,95,0.00,,,0.00,0.0,meteohub,2013-06-18 05:09:00,
2013-06-18 01:14:00,62.4,61.0,29.89,North,5,0.0,1.0,95,0.00,,,0.00,0.0,meteohub,2013-06-18 05:14:00,
2013-06-18 01:19:00,62.4,61.0,29.89,North,5,0.0,1.0,95,0.00,,,0.00,0.0,meteohub,2013-06-18 05:19:00,
2013-06-18 01:24:00,62.4,61.0,29.89,North,5,0.0,0.0,95,0.00,,,0.00,0.0,meteohub,2013-06-18 05:24:00,
2013-06-18 01:29:00,62.2,60.8,29.90,North,5,0.0,0.0,95,0.00,,,0.00,0.0,meteohub,2013-06-18 05:29:00,
2013-06-18 01:34:00,62.2,60.8,29.89,North,5,2.0,2.0,95,0.00,,,0.00,0.0,meteohub,2013-06-18 05:34:00,
2013-06-18 01:40:00,62.2,60.8,29.90,North,5,0.0,3.0,95,0.00,,,0.00,0.0,meteohub,2013-06-18 05:40:00,
2013-06-18 01:45:00,62.2,60.8,29.89,North,5,0.0,3.0,95,0.00,,,0.00,0.0,meteohub,2013-06-18 05:45:00,
2013-06-18 01:50:00,62.2,60.8,29.89,North,5,0.0,3.0,95,0.00,,,0.00,0.0,meteohub,2013-06-18 05:50:00,
2013-06-18 01:55:00,62.1,60.6,29.89,North,5,0.0,1.0,95,0.00,,,0.00,0.0,meteohub,2013-06-18 05:55:00,
2013-06-18 02:00:00,62.1,60.6,29.89,North,5,0.0,1.0,95,0.00,,,0.00,0.0,meteohub,2013-06-18 06:00:00,
2013-06-18 02:05:00,61.9,60.8,29.89,North,5,0.0,2.0,96,0.00,,,0.00,0.0,meteohub,2013-06-18 06:05:00,
2013-06-18 02:10:00,61.7,60.3,29.89,North,5,0.0,2.0,95,0.00,,,0.00,0.0,meteohub,2013-06-18 06:10:00,
2013-06-18 02:15:00,61.5,60.1,29.88,North,5,2.0,2.0,95,0.00,,,0.00,0.0,meteohub,2013-06-18 06:15:00,
2013-06-18 02:20:00,61.5,60.1,29.88,North,5,0.0,3.0,95,0.00,,,0.00,0.0,meteohub,2013-06-18 06:20:00,
2013-06-18 02:26:00,61.5,60.4,29.88,North,5,0.0,3.0,96,0.00,,,0.00,0.0,meteohub,2013-06-18 06:26:00,
2013-06-18 02:31:00,61.5,60.4,29.89,North,5,0.0,3.0,96,0.00,,,0.00,0.0,meteohub,2013-06-18 06:31:00,
2013-06-18 02:36:00,61.7,60.6,29.89,North,5,0.0,1.0,96,0.00,,,0.00,0.0,meteohub,2013-06-18 06:36:00,
2013-06-18 02:41:00,61.5,60.1,29.89,North,5,0.0,1.0,95,0.00,,,0.00,0.0,meteohub,2013-06-18 06:41:00,
2013-06-18 02:46:00,61.5,60.4,29.89,North,5,2.0,3.0,96,0.00,,,0.00,0.0,meteohub,2013-06-18 06:46:00,
2013-06-18 02:51:00,61.2,59.7,29.89,North,5,0.0,3.0,95,0.00,,,0.00,0.0,meteohub,2013-06-18 06:51:00,
2013-06-18 02:56:00,61.2,60.1,29.89,North,5,0.0,3.0,96,0.00,,,0.00,0.0,meteohub,2013-06-18 06:56:00,
2013-06-18 03:01:00,61.0,59.9,29.88,North,5,2.0,3.0,96,0.00,,,0.00,0.0,meteohub,2013-06-18 07:01:00,
2013-06-18 03:07:00,61.0,59.9,29.88,North,5,1.0,3.0,96,0.00,,,0.00,0.0,meteohub,2013-06-18 07:07:00,
2013-06-18 03:12:00,61.0,59.9,29.88,North,5,2.0,3.0,96,0.00,,,0.00,0.0,meteohub,2013-06-18 07:12:00,
2013-06-18 03:17:00,60.6,59.5,29.88,North,5,2.0,3.0,96,0.00,,,0.00,0.0,meteohub,2013-06-18 07:17:00,
2013-06-18 03:22:00,60.8,59.7,29.87,North,5,2.0,4.0,96,0.00,,,0.00,0.0,meteohub,2013-06-18 07:22:00,
2013-06-18 03:27:00,60.8,59.7,29.87,North,5,2.0,4.0,96,0.00,,,0.00,0.0,meteohub,2013-06-18 07:27:00,
2013-06-18 03:32:00,60.8,59.7,29.87,North,5,3.0,3.0,96,0.00,,,0.00,0.0,meteohub,2013-06-18 07:32:00,
2013-06-18 03:37:00,60.6,59.5,29.87,North,5,2.0,4.0,96,0.00,,,0.00,0.0,meteohub,2013-06-18 07:37:00,
2013-06-18 03:42:00,60.6,59.5,29.87,North,5,1.0,4.0,96,0.00,,,0.00,0.0,meteohub,2013-06-18 07:42:00,
2013-06-18 03:47:00,60.6,59.5,29.87,North,5,0.0,5.0,96,0.00,,,0.00,0.0,meteohub,2013-06-18 07:47:00,
2013-06-18 03:52:00,60.6,59.5,29.87,North,5,3.0,5.0,96,0.00,,,0.00,0.0,meteohub,2013-06-18 07:52:00,
2013-06-18 03:57:00,60.6,59.5,29.87,North,5,0.0,5.0,96,0.00,,,0.00,0.0,meteohub,2013-06-18 07:57:00,
2013-06-18 04:02:00,60.6,59.5,29.87,North,5,3.0,4.0,96,0.00,,,0.00,0.0,meteohub,2013-06-18 08:02:00,
2013-06-18 04:07:00,60.4,59.4,29.87,North,5,2.0,4.0,96,0.00,,,0.00,0.0,meteohub,2013-06-18 08:07:00,
2013-06-18 04:12:00,60.4,59.4,29.87,North,5,0.0,4.0,96,0.00,,,0.00,0.0,meteohub,2013-06-18 08:12:00,
2013-06-18 04:17:00,60.6,59.5,29.87,North,5,0.0,4.0,96,0.00,,,0.00,0.0,meteohub,2013-06-18 08:17:00,
2013-06-18 04:22:00,60.6,59.5,29.87,North,5,0.0,4.0,96,0.00,,,0.00,0.0,meteohub,2013-06-18 08:22:00,
2013-06-18 04:27:00,60.4,59.4,29.87,North,5,0.0,2.0,96,0.00,,,0.00,0.0,meteohub,2013-06-18 08:27:00,
2013-06-18 04:32:00,60.4,59.4,29.87,North,5,0.0,2.0,96,0.00,,,0.00,0.0,meteohub,2013-06-18 08:32:00,
2013-06-18 04:37:00,60.4,59.4,29.87,North,5,1.0,2.0,96,0.00,,,0.00,0.0,meteohub,2013-06-18 08:37:00,
2013-06-18 04:42:00,60.3,59.2,29.87,North,5,0.0,2.0,96,0.00,,,0.00,0.0,meteohub,2013-06-18 08:42:00,
2013-06-18 04:47:00,60.3,59.2,29.87,North,5,0.0,2.0,96,0.00,,,0.00,0.0,meteohub,2013-06-18 08:47:00,
2013-06-18 04:52:00,60.1,58.6,29.87,North,5,0.0,2.0,95,0.00,,,0.00,0.0,meteohub,2013-06-18 08:52:00,
2013-06-18 04:57:00,60.1,59.0,29.87,North,5,0.0,3.0,96,0.00,,,0.00,0.0,meteohub,2013-06-18 08:57:00,
2013-06-18 05:02:00,60.3,59.2,29.88,North,5,0.0,3.0,96,0.01,,,0.01,0.0,meteohub,2013-06-18 09:02:00,
2013-06-18 05:07:00,60.1,59.0,29.88,North,5,0.0,3.0,96,0.01,,,0.01,0.0,meteohub,2013-06-18 09:07:00,
2013-06-18 05:12:00,60.1,59.0,29.88,North,5,1.0,3.0,96,0.01,,,0.01,0.0,meteohub,2013-06-18 09:12:00,
2013-06-18 05:17:00,59.7,58.6,29.88,North,5,0.0,3.0,96,0.01,,,0.01,0.0,meteohub,2013-06-18 09:17:00,
2013-06-18 05:22:00,59.7,58.6,29.88,North,5,0.0,3.0,96,0.01,,,0.01,0.0,meteohub,2013-06-18 09:22:00,
2013-06-18 05:27:00,59.7,58.6,29.88,North,5,1.0,2.0,96,0.01,,,0.01,0.0,meteohub,2013-06-18 09:27:00,
2013-06-18 05:32:00,59.7,58.6,29.88,North,5,0.0,2.0,96,0.01,,,0.01,7.0,meteohub,2013-06-18 09:32:00,
2013-06-18 05:37:00,59.7,58.6,29.88,North,5,0.0,2.0,96,0.01,,,0.01,9.0,meteohub,2013-06-18 09:37:00,
2013-06-18 05:42:00,59.7,58.6,29.88,North,5,0.0,2.0,96,0.01,,,0.01,11.0,meteohub,2013-06-18 09:42:00,
2013-06-18 05:47:00,59.7,58.6,29.88,North,5,0.0,2.0,96,0.01,,,0.01,16.0,meteohub,2013-06-18 09:47:00,
2013-06-18 05:52:00,59.9,58.8,29.89,North,5,0.0,2.0,96,0.01,,,0.01,25.0,meteohub,2013-06-18 09:52:00,
2013-06-18 05:57:00,60.1,59.0,29.88,North,9,0.0,1.0,96,0.01,,,0.01,26.0,meteohub,2013-06-18 09:57:00,
2013-06-18 06:02:00,60.1,59.0,29.88,North,9,0.0,1.0,96,0.00,,,0.01,33.0,meteohub,2013-06-18 10:02:00,
2013-06-18 06:07:00,60.3,59.2,29.89,North,9,0.0,1.0,96,0.00,,,0.01,42.0,meteohub,2013-06-18 10:07:00,
2013-06-18 06:12:00,60.3,59.2,29.89,North,9,0.0,0.0,96,0.00,,,0.01,49.0,meteohub,2013-06-18 10:12:00,
2013-06-18 06:17:00,60.4,59.4,29.89,North,9,0.0,0.0,96,0.00,,,0.01,69.0,meteohub,2013-06-18 10:17:00,
2013-06-18 06:22:00,60.6,59.5,29.89,North,9,0.0,0.0,96,0.00,,,0.01,62.0,meteohub,2013-06-18 10:22:00,
2013-06-18 06:27:00,61.0,59.9,29.89,North,9,0.0,0.0,96,0.00,,,0.01,72.0,meteohub,2013-06-18 10:27:00,
2013-06-18 06:32:00,61.2,60.1,29.89,North,9,0.0,0.0,96,0.00,,,0.01,90.0,meteohub,2013-06-18 10:32:00,
2013-06-18 06:37:00,61.3,60.3,29.89,North,9,0.0,0.0,96,0.00,,,0.01,116.0,meteohub,2013-06-18 10:37:00,
2013-06-18 06:42:00,61.3,60.3,29.89,North,9,0.0,1.0,96,0.00,,,0.01,144.0,meteohub,2013-06-18 10:42:00,
2013-06-18 06:47:00,61.7,60.6,29.89,North,9,1.0,1.0,96,0.00,,,0.01,125.0,meteohub,2013-06-18 10:47:00,
2013-06-18 06:52:00,62.1,61.0,29.89,NNE,15,0.0,1.0,96,0.00,,,0.01,88.0,meteohub,2013-06-18 10:52:00,
2013-06-18 06:57:00,62.2,61.2,29.89,NNE,15,0.0,1.0,96,0.00,,,0.01,169.0,meteohub,2013-06-18 10:57:00,
2013-06-18 07:02:00,62.8,61.7,29.89,NNE,15,0.0,1.0,96,0.00,,,0.01,199.0,meteohub,2013-06-18 11:02:00,
2013-06-18 07:07:00,63.1,62.1,29.89,NNE,15,1.0,1.0,96,0.00,,,0.01,206.0,meteohub,2013-06-18 11:07:00,
2013-06-18 07:12:00,63.7,62.6,29.89,NNE,23,0.0,1.0,96,0.00,,,0.01,218.0,meteohub,2013-06-18 11:12:00,
2013-06-18 07:17:00,63.9,62.8,29.89,NNE,23,0.0,2.0,96,0.00,,,0.01,174.0,meteohub,2013-06-18 11:17:00,
2013-06-18 07:22:00,64.4,63.0,29.89,NNE,23,1.0,2.0,95,0.00,,,0.01,244.0,meteohub,2013-06-18 11:22:00,
2013-06-18 07:27:00,64.9,63.5,29.89,NNE,23,0.0,3.0,95,0.00,,,0.01,271.0,meteohub,2013-06-18 11:27:00,
2013-06-18 07:32:00,65.5,64.0,29.89,NNE,23,0.0,3.0,95,0.00,,,0.01,250.0,meteohub,2013-06-18 11:32:00,
2013-06-18 07:37:00,65.7,63.9,29.89,NNE,23,0.0,3.0,94,0.00,,,0.01,297.0,meteohub,2013-06-18 11:37:00,
2013-06-18 07:42:00,66.4,64.6,29.89,ENE,69,0.0,2.0,94,0.00,,,0.01,309.0,meteohub,2013-06-18 11:42:00,
2013-06-18 07:47:00,66.7,64.6,29.89,ENE,74,0.0,2.0,93,0.00,,,0.01,339.0,meteohub,2013-06-18 11:47:00,
2013-06-18 07:52:00,67.3,64.9,29.89,ENE,76,0.0,2.0,92,0.00,,,0.01,352.0,meteohub,2013-06-18 11:52:00,
2013-06-18 07:57:00,67.6,64.6,29.89,SE,138,2.0,2.0,90,0.00,,,0.01,373.0,meteohub,2013-06-18 11:57:00,
2013-06-18 08:02:00,67.8,64.4,29.89,SE,143,0.0,5.0,89,0.00,,,0.01,355.0,meteohub,2013-06-18 12:02:00,
2013-06-18 08:07:00,68.0,64.6,29.89,SE,141,1.0,5.0,89,0.00,,,0.01,401.0,meteohub,2013-06-18 12:07:00,
2013-06-18 08:12:00,68.5,64.8,29.89,ESE,109,0.0,6.0,88,0.00,,,0.01,401.0,meteohub,2013-06-18 12:12:00,
2013-06-18 08:17:00,69.1,65.3,29.89,SE,135,4.0,6.0,88,0.00,,,0.01,439.0,meteohub,2013-06-18 12:17:00,
2013-06-18 08:22:00,68.5,64.2,29.90,SE,139,7.0,9.0,86,0.00,,,0.01,445.0,meteohub,2013-06-18 12:22:00,
2013-06-18 08:27:00,68.5,63.9,29.90,SE,140,2.0,9.0,85,0.00,,,0.01,432.0,meteohub,2013-06-18 12:27:00,
2013-06-18 08:32:00,68.7,64.0,29.90,SSE,158,4.0,9.0,85,0.00,,,0.01,473.0,meteohub,2013-06-18 12:32:00,
2013-06-18 08:37:00,69.1,64.8,29.90,SE,134,0.0,8.0,86,0.00,,,0.01,485.0,meteohub,2013-06-18 12:37:00,
2013-06-18 08:42:00,69.8,64.8,29.90,ESE,113,5.0,8.0,84,0.00,,,0.01,489.0,meteohub,2013-06-18 12:42:00,
2013-06-18 08:47:00,69.8,64.8,29.90,SSE,147,2.0,8.0,84,0.00,,,0.01,529.0,meteohub,2013-06-18 12:47:00,
2013-06-18 08:52:00,70.5,65.1,29.90,ESE,119,2.0,8.0,83,0.00,,,0.01,482.0,meteohub,2013-06-18 12:52:00,
2013-06-18 08:57:00,71.2,65.8,29.90,ESE,114,2.0,8.0,83,0.00,,,0.01,534.0,meteohub,2013-06-18 12:57:00,
2013-06-18 09:02:00,71.1,65.7,29.90,SE,127,4.0,6.0,83,0.00,,,0.01,473.0,meteohub,2013-06-18 13:02:00,
2013-06-18 09:07:00,71.2,65.5,29.90,South,180,1.0,6.0,82,0.00,,,0.01,512.0,meteohub,2013-06-18 13:07:00,
2013-06-18 09:12:00,70.3,64.6,29.90,South,177,6.0,6.0,82,0.00,,,0.01,515.0,meteohub,2013-06-18 13:12:00,
2013-06-18 09:17:00,70.7,65.3,29.90,SE,138,2.0,9.0,83,0.00,,,0.01,585.0,meteohub,2013-06-18 13:17:00,
2013-06-18 09:22:00,70.5,64.8,29.90,SSE,165,5.0,9.0,82,0.00,,,0.01,619.0,meteohub,2013-06-18 13:22:00,
2013-06-18 09:27:00,70.2,65.1,29.90,South,171,0.0,7.0,84,0.00,,,0.01,657.0,meteohub,2013-06-18 13:27:00,
2013-06-18 09:32:00,70.9,65.5,29.90,SSE,162,2.0,7.0,83,0.00,,,0.01,694.0,meteohub,2013-06-18 13:32:00,
2013-06-18 09:37:00,71.8,66.0,29.90,SE,142,5.0,7.0,82,0.00,,,0.01,733.0,meteohub,2013-06-18 13:37:00,
2013-06-18 09:42:00,72.7,65.8,29.90,SSE,165,2.0,7.0,79,0.00,,,0.01,457.0,meteohub,2013-06-18 13:42:00,
2013-06-18 09:47:00,71.6,65.8,29.90,SSE,161,4.0,7.0,82,0.00,,,0.01,624.0,meteohub,2013-06-18 13:47:00,
2013-06-18 09:52:00,70.3,64.9,29.90,SSE,166,4.0,10.0,83,0.00,,,0.01,490.0,meteohub,2013-06-18 13:52:00,
2013-06-18 09:57:00,69.6,64.6,29.90,SSE,163,2.0,10.0,84,0.00,,,0.01,471.0,meteohub,2013-06-18 13:57:00,
2013-06-18 10:02:00,69.1,64.4,29.90,South,178,5.0,10.0,85,0.00,,,0.01,383.0,meteohub,2013-06-18 14:02:00,
2013-06-18 10:07:00,69.1,64.4,29.90,South,169,5.0,10.0,85,0.00,,,0.01,376.0,meteohub,2013-06-18 14:07:00,
2013-06-18 10:12:00,69.3,64.6,29.90,South,172,1.0,10.0,85,0.00,,,0.01,410.0,meteohub,2013-06-18 14:12:00,
2013-06-18 10:17:00,69.4,65.1,29.89,SSE,165,2.0,7.0,86,0.00,,,0.01,510.0,meteohub,2013-06-18 14:17:00,
2013-06-18 10:22:00,69.8,65.5,29.90,South,188,4.0,7.0,86,0.00,,,0.01,508.0,meteohub,2013-06-18 14:22:00,
2013-06-18 10:27:00,70.7,66.4,29.89,South,172,1.0,8.0,86,0.00,,,0.01,598.0,meteohub,2013-06-18 14:27:00,
2013-06-18 10:32:00,71.2,66.2,29.89,SE,138,2.0,8.0,84,0.00,,,0.01,729.0,meteohub,2013-06-18 14:32:00,
2013-06-18 10:37:00,72.0,66.2,29.89,SSE,157,5.0,6.0,82,0.00,,,0.01,810.0,meteohub,2013-06-18 14:37:00,
2013-06-18 10:42:00,72.3,66.9,29.89,South,187,3.0,6.0,83,0.00,,,0.01,788.0,meteohub,2013-06-18 14:42:00,
2013-06-18 10:47:00,72.9,67.1,29.89,East,98,4.0,6.0,82,0.00,,,0.01,821.0,meteohub,2013-06-18 14:47:00,
2013-06-18 10:52:00,74.7,67.3,29.89,South,171,1.0,6.0,78,0.00,,,0.01,772.0,meteohub,2013-06-18 14:52:00,
2013-06-18 10:57:00,75.0,67.3,29.89,South,180,0.0,7.0,77,0.00,,,0.01,773.0,meteohub,2013-06-18 14:57:00,
2013-06-18 11:02:00,75.7,68.0,29.88,ESE,121,2.0,7.0,77,0.00,,,0.01,793.0,meteohub,2013-06-18 15:02:00,
2013-06-18 11:07:00,76.8,68.4,29.88,East,90,2.0,7.0,75,0.00,,,0.01,809.0,meteohub,2013-06-18 15:07:00,
2013-06-18 11:12:00,76.8,67.8,29.88,SE,127,4.0,6.0,74,0.00,,,0.01,863.0,meteohub,2013-06-18 15:12:00,
2013-06-18 11:17:00,77.4,68.0,29.88,ESE,122,0.0,7.0,73,0.00,,,0.01,884.0,meteohub,2013-06-18 15:17:00,
2013-06-18 11:22:00,78.4,68.2,29.88,ESE,103,4.0,7.0,71,0.00,,,0.01,860.0,meteohub,2013-06-18 15:22:00,
2013-06-18 11:27:00,77.9,68.2,29.88,SE,138,2.0,8.0,72,0.00,,,0.01,951.0,meteohub,2013-06-18 15:27:00,
2013-06-18 11:32:00,78.1,68.4,29.87,ESE,113,4.0,9.0,72,0.00,,,0.01,768.0,meteohub,2013-06-18 15:32:00,
2013-06-18 11:37:00,78.6,67.6,29.87,SE,129,7.0,9.0,69,0.00,,,0.01,865.0,meteohub,2013-06-18 15:37:00,
2013-06-18 11:42:00,78.3,67.3,29.88,SE,143,5.0,10.0,69,0.00,,,0.01,988.0,meteohub,2013-06-18 15:42:00,
2013-06-18 11:47:00,78.3,68.0,29.87,South,171,7.0,10.0,71,0.00,,,0.01,752.0,meteohub,2013-06-18 15:47:00,
2013-06-18 11:52:00,77.2,68.2,29.87,South,178,2.0,11.0,74,0.00,,,0.01,796.0,meteohub,2013-06-18 15:52:00,
2013-06-18 11:57:00,77.7,68.0,29.88,ESE,123,5.0,11.0,72,0.00,,,0.01,756.0,meteohub,2013-06-18 15:57:00,
2013-06-18 12:02:00,78.3,68.9,29.88,South,171,5.0,11.0,73,0.00,,,0.01,680.0,meteohub,2013-06-18 16:02:00,
2013-06-18 12:07:00,78.3,68.5,29.87,SSE,168,0.0,10.0,72,0.00,,,0.01,570.0,meteohub,2013-06-18 16:07:00,
2013-06-18 12:12:00,77.4,68.4,29.87,SE,135,1.0,11.0,74,0.00,,,0.01,626.0,meteohub,2013-06-18 16:12:00,
2013-06-18 12:18:00,76.3,68.2,29.87,SSE,167,6.0,11.0,76,0.00,,,0.01,650.0,meteohub,2013-06-18 16:18:00,
2013-06-18 12:23:00,77.4,68.9,29.87,SSE,163,4.0,10.0,75,0.00,,,0.01,619.0,meteohub,2013-06-18 16:23:00,
2013-06-18 12:28:00,77.7,68.7,29.87,SE,141,5.0,10.0,74,0.00,,,0.01,677.0,meteohub,2013-06-18 16:28:00,
2013-06-18 12:33:00,77.7,68.4,29.87,East,79,1.0,10.0,73,0.00,,,0.01,745.0,meteohub,2013-06-18 16:33:00,
2013-06-18 12:38:00,78.4,68.7,29.86,SSW,193,4.0,9.0,72,0.00,,,0.01,580.0,meteohub,2013-06-18 16:38:00,
2013-06-18 12:43:00,77.0,68.5,29.86,SE,134,1.0,9.0,75,0.00,,,0.01,693.0,meteohub,2013-06-18 16:43:00,
2013-06-18 12:48:00,77.4,68.4,29.86,SSE,148,5.0,9.0,74,0.00,,,0.01,649.0,meteohub,2013-06-18 16:48:00,
2013-06-18 12:54:00,76.6,68.5,29.86,SSE,151,4.0,9.0,76,0.00,,,0.01,686.0,meteohub,2013-06-18 16:54:00,
2013-06-18 12:59:00,78.3,69.3,29.86,South,173,5.0,8.0,74,0.00,,,0.01,896.0,meteohub,2013-06-18 16:59:00,
2013-06-18 13:04:00,77.5,68.9,29.86,SE,134,6.0,8.0,75,0.00,,,0.01,921.0,meteohub,2013-06-18 17:04:00,
2013-06-18 13:09:00,78.4,69.8,29.86,South,184,3.0,12.0,75,0.00,,,0.01,933.0,meteohub,2013-06-18 17:09:00,
2013-06-18 13:14:00,79.0,69.6,29.86,SW,215,4.0,12.0,73,0.00,,,0.01,1000.0,meteohub,2013-06-18 17:14:00,
2013-06-18 13:19:00,78.4,69.4,29.86,SE,127,4.0,12.0,74,0.00,,,0.01,817.0,meteohub,2013-06-18 17:19:00,
2013-06-18 13:24:00,79.3,69.4,29.85,SSE,159,7.0,11.0,72,0.00,,,0.01,796.0,meteohub,2013-06-18 17:24:00,
2013-06-18 13:30:00,79.0,70.0,29.85,South,179,5.0,11.0,74,0.00,,,0.01,1018.0,meteohub,2013-06-18 17:30:00,
2013-06-18 13:35:00,79.2,69.3,29.84,South,173,6.0,10.0,72,0.00,,,0.01,902.0,meteohub,2013-06-18 17:35:00,
2013-06-18 13:40:00,79.0,69.3,29.84,South,189,8.0,10.0,72,0.00,,,0.01,594.0,meteohub,2013-06-18 17:40:00,
2013-06-18 13:45:00,78.6,69.6,29.83,SE,125,5.0,11.0,74,0.00,,,0.01,1014.0,meteohub,2013-06-18 17:45:00,
2013-06-18 13:50:00,79.7,70.3,29.83,SE,143,4.0,11.0,73,0.00,,,0.01,726.0,meteohub,2013-06-18 17:50:00,
2013-06-18 13:55:00,79.9,70.0,29.83,ENE,76,2.0,10.0,72,0.00,,,0.01,501.0,meteohub,2013-06-18 17:55:00,
2013-06-18 14:00:00,79.7,69.8,29.83,SSE,147,6.0,9.0,72,0.00,,,0.01,499.0,meteohub,2013-06-18 18:00:00,
2013-06-18 14:05:00,78.1,68.7,29.82,SSW,199,7.0,12.0,73,0.00,,,0.01,582.0,meteohub,2013-06-18 18:05:00,
2013-06-18 14:11:00,77.2,69.1,29.83,South,173,4.0,12.0,76,0.00,,,0.01,529.0,meteohub,2013-06-18 18:11:00,
2013-06-18 14:16:00,77.4,68.9,29.83,SSE,159,6.0,12.0,75,0.00,,,0.01,529.0,meteohub,2013-06-18 18:16:00,
2013-06-18 14:21:00,76.8,69.1,29.82,South,173,6.0,14.0,77,0.00,,,0.01,863.0,meteohub,2013-06-18 18:21:00,
2013-06-18 14:26:00,77.5,68.5,29.82,South,173,2.0,14.0,74,0.00,,,0.01,837.0,meteohub,2013-06-18 18:26:00,
2013-06-18 14:31:00,77.5,68.5,29.82,SE,132,1.0,14.0,74,0.00,,,0.01,450.0,meteohub,2013-06-18 18:31:00,
2013-06-18 14:36:00,77.2,68.7,29.82,SSE,157,8.0,11.0,75,0.00,,,0.01,378.0,meteohub,2013-06-18 18:36:00,
2013-06-18 14:41:00,75.9,67.8,29.82,South,186,5.0,11.0,76,0.00,,,0.01,353.0,meteohub,2013-06-18 18:41:00,
2013-06-18 14:47:00,74.7,67.3,29.83,South,186,5.0,10.0,78,0.00,,,0.01,360.0,meteohub,2013-06-18 18:47:00,
2013-06-18 14:52:00,74.8,67.8,29.83,South,169,4.0,11.0,79,0.00,,,0.01,329.0,meteohub,2013-06-18 18:52:00,
2013-06-18 14:57:00,74.7,67.3,29.82,South,191,4.0,11.0,78,0.00,,,0.01,353.0,meteohub,2013-06-18 18:57:00,
2013-06-18 15:02:00,74.7,67.6,29.82,SSW,203,5.0,9.0,79,0.00,,,0.01,325.0,meteohub,2013-06-18 19:02:00,
2013-06-18 15:07:00,74.5,67.5,29.82,SE,143,7.0,10.0,79,0.00,,,0.01,311.0,meteohub,2013-06-18 19:07:00,
2013-06-18 15:12:00,74.1,67.6,29.82,SE,142,7.0,10.0,80,0.00,,,0.01,267.0,meteohub,2013-06-18 19:12:00,
2013-06-18 15:17:00,73.8,68.0,29.82,ESE,121,6.0,12.0,82,0.00,,,0.01,257.0,meteohub,2013-06-18 19:17:00,
2013-06-18 15:22:00,73.9,68.2,29.82,SE,135,4.0,12.0,82,0.00,,,0.01,267.0,meteohub,2013-06-18 19:22:00,
2013-06-18 15:27:00,73.6,67.5,29.82,SE,141,6.0,12.0,81,0.00,,,0.01,250.0,meteohub,2013-06-18 19:27:00,
2013-06-18 15:32:00,73.2,67.1,29.82,SSE,161,4.0,9.0,81,0.00,,,0.01,265.0,meteohub,2013-06-18 19:32:00,
2013-06-18 15:37:00,73.2,67.5,29.82,ESE,123,6.0,9.0,82,0.00,,,0.01,241.0,meteohub,2013-06-18 19:37:00,
2013-06-18 15:42:00,73.2,67.5,29.82,ESE,107,2.0,9.0,82,0.00,,,0.01,195.0,meteohub,2013-06-18 19:42:00,
2013-06-18 15:47:00,73.0,67.3,29.82,East,96,5.0,9.0,82,0.00,,,0.01,155.0,meteohub,2013-06-18 19:47:00,
2013-06-18 15:52:00,73.0,66.9,29.82,South,169,1.0,9.0,81,0.00,,,0.01,142.0,meteohub,2013-06-18 19:52:00,
2013-06-18 15:57:00,73.0,67.3,29.83,SE,136,2.0,9.0,82,0.00,,,0.01,141.0,meteohub,2013-06-18 19:57:00,
2013-06-18 16:02:00,73.0,67.6,29.83,SSE,166,1.0,8.0,83,0.00,,,0.01,130.0,meteohub,2013-06-18 20:02:00,
2013-06-18 16:07:00,73.0,67.6,29.83,SE,135,5.0,7.0,83,0.00,,,0.01,134.0,meteohub,2013-06-18 20:07:00,
2013-06-18 16:12:00,72.9,67.5,29.83,SE,141,4.0,7.0,83,0.00,,,0.01,121.0,meteohub,2013-06-18 20:12:00,
2013-06-18 16:17:00,73.0,67.6,29.84,SE,144,2.0,8.0,83,0.00,,,0.01,111.0,meteohub,2013-06-18 20:17:00,
2013-06-18 16:22:00,73.2,67.8,29.84,East,96,0.0,8.0,83,0.00,,,0.01,111.0,meteohub,2013-06-18 20:22:00,
2013-06-18 16:27:00,73.8,68.0,29.85,NE,53,2.0,8.0,82,0.00,,,0.01,102.0,meteohub,2013-06-18 20:27:00,
2013-06-18 16:32:00,73.9,68.2,29.85,East,79,2.0,7.0,82,0.00,,,0.01,81.0,meteohub,2013-06-18 20:32:00,
2013-06-18 16:37:00,74.1,68.0,29.85,NNE,26,5.0,6.0,81,0.00,,,0.01,81.0,meteohub,2013-06-18 20:37:00,
2013-06-18 16:42:00,74.1,68.0,29.85,NE,50,3.0,7.0,81,0.00,,,0.01,83.0,meteohub,2013-06-18 20:42:00,
2013-06-18 16:47:00,74.1,68.2,29.84,East,92,4.0,8.0,82,0.00,,,0.01,81.0,meteohub,2013-06-18 20:47:00,
2013-06-18 16:53:00,74.3,68.7,29.84,ENE,57,2.0,8.0,83,0.00,,,0.01,81.0,meteohub,2013-06-18 20:53:00,
2013-06-18 16:58:00,73.9,68.7,29.84,East,89,4.0,8.0,84,0.00,,,0.01,23.0,meteohub,2013-06-18 20:58:00,
2013-06-18 17:03:00,73.8,68.9,29.84,ENE,59,4.0,8.0,85,0.00,,,0.01,7.0,meteohub,2013-06-18 21:03:00,
2013-06-18 17:08:00,73.4,68.5,29.85,NNE,30,3.0,5.0,85,0.00,,,0.01,0.0,meteohub,2013-06-18 21:08:00,
2013-06-18 17:13:00,72.7,67.6,29.85,NNE,13,0.0,7.0,84,0.00,,,0.01,0.0,meteohub,2013-06-18 21:13:00,
2013-06-18 17:18:00,72.3,67.6,29.86,NE,51,3.0,7.0,85,0.00,,,0.01,7.0,meteohub,2013-06-18 21:18:00,
2013-06-18 17:24:00,71.2,66.9,29.85,NE,41,5.0,7.0,86,0.02,,,0.03,23.0,meteohub,2013-06-18 21:24:00,
2013-06-18 17:29:00,70.3,66.2,29.84,ESE,103,6.0,8.0,87,0.04,,,0.05,33.0,meteohub,2013-06-18 21:29:00,
2013-06-18 17:34:00,69.8,66.0,29.84,NE,52,4.0,13.0,88,0.04,,,0.05,28.0,meteohub,2013-06-18 21:34:00,
2013-06-18 17:39:00,69.3,65.8,29.85,NE,34,3.0,13.0,89,0.05,,,0.06,16.0,meteohub,2013-06-18 21:39:00,
2013-06-18 17:44:00,68.9,65.8,29.85,North,355,5.0,13.0,90,0.05,,,0.06,12.0,meteohub,2013-06-18 21:44:00,
2013-06-18 17:49:00,68.5,65.5,29.85,NNW,338,5.0,8.0,90,0.05,,,0.06,11.0,meteohub,2013-06-18 21:49:00,
2013-06-18 17:54:00,68.4,65.7,29.86,North,0,3.0,8.0,91,0.05,,,0.06,11.0,meteohub,2013-06-18 21:54:00,
2013-06-18 18:00:00,68.4,65.7,29.86,North,351,0.0,8.0,91,0.05,,,0.06,14.0,meteohub,2013-06-18 22:00:00,
2013-06-18 18:05:00,68.2,65.5,29.86,North,0,3.0,7.0,91,0.05,,,0.06,16.0,meteohub,2013-06-18 22:05:00,
2013-06-18 18:10:00,68.2,65.8,29.86,NNE,30,6.0,6.0,92,0.05,,,0.06,23.0,meteohub,2013-06-18 22:10:00,
2013-06-18 18:15:00,67.8,65.5,29.86,NNE,16,6.0,9.0,92,0.05,,,0.07,21.0,meteohub,2013-06-18 22:15:00,
2013-06-18 18:20:00,67.8,65.5,29.86,North,350,7.0,11.0,92,0.03,,,0.07,18.0,meteohub,2013-06-18 22:20:00,
2013-06-18 18:25:00,67.6,65.5,29.86,North,350,6.0,11.0,93,0.02,,,0.07,14.0,meteohub,2013-06-18 22:25:00,
2013-06-18 18:30:00,67.6,65.5,29.86,NNW,340,5.0,11.0,93,0.02,,,0.08,12.0,meteohub,2013-06-18 22:30:00,
2013-06-18 18:35:00,67.5,65.3,29.86,North,351,5.0,10.0,93,0.02,,,0.08,11.0,meteohub,2013-06-18 22:35:00,
2013-06-18 18:41:00,67.5,65.7,29.86,NNW,331,2.0,10.0,94,0.03,,,0.09,11.0,meteohub,2013-06-18 22:41:00,
2013-06-18 18:46:00,67.5,65.7,29.86,NNW,329,2.0,9.0,94,0.03,,,0.09,11.0,meteohub,2013-06-18 22:46:00,
2013-06-18 18:51:00,67.3,65.5,29.86,NNW,348,2.0,7.0,94,0.04,,,0.10,9.0,meteohub,2013-06-18 22:51:00,
2013-06-18 18:56:00,67.3,65.5,29.87,NNW,346,4.0,7.0,94,0.05,,,0.11,7.0,meteohub,2013-06-18 22:56:00,
2013-06-18 19:01:00,67.1,65.3,29.87,NNW,345,0.0,7.0,94,0.06,,,0.12,7.0,meteohub,2013-06-18 23:01:00,
2013-06-18 19:06:00,67.1,65.3,29.87,NNW,345,4.0,5.0,94,0.07,,,0.13,7.0,meteohub,2013-06-18 23:06:00,
2013-06-18 19:11:00,67.1,65.3,29.87,NNW,345,0.0,5.0,94,0.08,,,0.14,7.0,meteohub,2013-06-18 23:11:00,
2013-06-18 19:16:00,67.3,65.5,29.87,North,5,1.0,4.0,94,0.08,,,0.15,7.0,meteohub,2013-06-18 23:16:00,
2013-06-18 19:22:00,66.9,65.1,29.87,North,5,0.0,4.0,94,0.09,,,0.16,5.0,meteohub,2013-06-18 23:22:00,
2013-06-18 19:27:00,66.9,65.1,29.87,North,5,2.0,2.0,94,0.09,,,0.16,5.0,meteohub,2013-06-18 23:27:00,
2013-06-18 19:32:00,66.7,64.9,29.86,North,5,2.0,4.0,94,0.09,,,0.17,5.0,meteohub,2013-06-18 23:32:00,
2013-06-18 19:37:00,66.7,64.9,29.86,NNE,15,3.0,6.0,94,0.09,,,0.17,5.0,meteohub,2013-06-18 23:37:00,
2013-06-18 19:42:00,66.6,64.8,29.86,North,0,3.0,6.0,94,0.09,,,0.18,0.0,meteohub,2013-06-18 23:42:00,
2013-06-18 19:47:00,66.4,64.6,29.85,North,355,6.0,6.0,94,0.08,,,0.18,0.0,meteohub,2013-06-18 23:47:00,
2013-06-18 19:52:00,66.0,64.6,29.86,North,355,4.0,7.0,95,0.08,,,0.19,0.0,meteohub,2013-06-18 23:52:00,
2013-06-18 19:57:00,66.0,64.6,29.86,North,0,4.0,7.0,95,0.07,,,0.19,0.0,meteohub,2013-06-18 23:57:00,
2013-06-18 20:02:00,66.0,64.6,29.86,NE,36,6.0,8.0,95,0.06,,,0.19,0.0,meteohub,2013-06-19 00:02:00,
2013-06-18 20:07:00,65.8,64.0,29.86,NNE,17,3.0,8.0,94,0.06,,,0.00,0.0,meteohub,2013-06-19 00:07:00,
2013-06-18 20:12:00,65.7,64.2,29.85,North,0,2.0,8.0,95,0.06,,,0.01,0.0,meteohub,2013-06-19 00:12:00,
2013-06-18 20:17:00,65.7,64.2,29.85,North,10,3.0,7.0,95,0.05,,,0.01,0.0,meteohub,2013-06-19 00:17:00,
2013-06-18 20:22:00,65.5,64.0,29.86,NNE,13,3.0,7.0,95,0.04,,,0.01,0.0,meteohub,2013-06-19 00:22:00,
2013-06-18 20:27:00,65.5,64.0,29.86,NNE,13,3.0,6.0,95,0.04,,,0.02,0.0,meteohub,2013-06-19 00:27:00,
2013-06-18 20:32:00,65.5,64.0,29.86,NNE,26,3.0,6.0,95,0.04,,,0.02,0.0,meteohub,2013-06-19 00:32:00,
2013-06-18 20:37:00,65.3,63.9,29.86,NNE,30,2.0,6.0,95,0.03,,,0.02,0.0,meteohub,2013-06-19 00:37:00,
2013-06-18 20:42:00,65.1,63.7,29.86,NNE,28,4.0,6.0,95,0.03,,,0.02,0.0,meteohub,2013-06-19 00:42:00,
2013-06-18 20:47:00,65.1,63.7,29.86,NE,55,1.0,6.0,95,0.04,,,0.02,0.0,meteohub,2013-06-19 00:47:00,
2013-06-18 20:52:00,65.1,63.7,29.86,NNE,32,6.0,6.0,95,0.03,,,0.03,0.0,meteohub,2013-06-19 00:52:00,
2013-06-18 20:57:00,65.1,63.7,29.87,NE,50,4.0,6.0,95,0.03,,,0.03,0.0,meteohub,2013-06-19 00:57:00,
2013-06-18 21:02:00,64.9,63.5,29.87,NE,34,2.0,6.0,95,0.03,,,0.03,0.0,meteohub,2013-06-19 01:02:00,
2013-06-18 21:07:00,64.9,63.5,29.87,NE,47,0.0,6.0,95,0.03,,,0.03,0.0,meteohub,2013-06-19 01:07:00,
2013-06-18 21:12:00,64.9,63.5,29.87,NE,47,2.0,6.0,95,0.02,,,0.03,0.0,meteohub,2013-06-19 01:12:00,
2013-06-18 21:17:00,64.9,63.5,29.87,ENE,78,0.0,6.0,95,0.02,,,0.03,0.0,meteohub,2013-06-19 01:17:00,
2013-06-18 21:22:00,64.9,63.5,29.87,ENE,77,1.0,4.0,95,0.02,,,0.03,0.0,meteohub,2013-06-19 01:22:00,
2013-06-18 21:27:00,64.9,63.5,29.88,East,90,0.0,5.0,95,0.02,,,0.04,0.0,meteohub,2013-06-19 01:27:00,
2013-06-18 21:32:00,64.8,63.3,29.87,East,89,1.0,5.0,95,0.02,,,0.04,0.0,meteohub,2013-06-19 01:32:00,
2013-06-18 21:37:00,64.8,63.3,29.87,ESE,123,2.0,5.0,95,0.02,,,0.04,0.0,meteohub,2013-06-19 01:37:00,
2013-06-18 21:42:00,64.8,63.3,29.87,ENE,62,0.0,6.0,95,0.02,,,0.04,0.0,meteohub,2013-06-19 01:42:00,
2013-06-18 21:47:00,64.8,63.3,29.87,East,86,4.0,6.0,95,0.01,,,0.04,0.0,meteohub,2013-06-19 01:47:00,
2013-06-18 21:52:00,64.8,63.3,29.87,East,84,2.0,6.0,95,0.01,,,0.04,0.0,meteohub,2013-06-19 01:52:00,
2013-06-18 21:57:00,64.8,63.3,29.87,NE,54,3.0,6.0,95,0.01,,,0.04,0.0,meteohub,2013-06-19 01:57:00,
2013-06-18 22:02:00,64.6,63.1,29.87,NE,34,1.0,6.0,95,0.01,,,0.04,0.0,meteohub,2013-06-19 02:02:00,
2013-06-18 22:07:00,64.8,63.3,29.87,NE,44,2.0,6.0,95,0.02,,,0.05,0.0,meteohub,2013-06-19 02:07:00,
2013-06-18 22:12:00,64.8,63.3,29.87,NE,50,2.0,6.0,95,0.02,,,0.05,0.0,meteohub,2013-06-19 02:12:00,
2013-06-18 22:17:00,64.6,63.1,29.87,NNE,26,2.0,6.0,95,0.02,,,0.05,0.0,meteohub,2013-06-19 02:17:00,
2013-06-18 22:22:00,64.6,63.1,29.87,NE,38,0.0,6.0,95,0.02,,,0.05,0.0,meteohub,2013-06-19 02:22:00,
2013-06-18 22:27:00,64.6,63.1,29.87,ENE,58,3.0,6.0,95,0.01,,,0.05,0.0,meteohub,2013-06-19 02:27:00,
2013-06-18 22:32:00,64.6,63.1,29.87,NNE,26,2.0,5.0,95,0.02,,,0.06,0.0,meteohub,2013-06-19 02:32:00,
2013-06-18 22:37:00,64.6,63.1,29.87,NNE,20,3.0,8.0,95,0.02,,,0.06,0.0,meteohub,2013-06-19 02:37:00,
2013-06-18 22:42:00,64.4,63.0,29.87,NE,40,3.0,8.0,95,0.02,,,0.06,0.0,meteohub,2013-06-19 02:42:00,
2013-06-18 22:47:00,64.6,63.1,29.87,NNE,31,5.0,8.0,95,0.02,,,0.06,0.0,meteohub,2013-06-19 02:47:00,
2013-06-18 22:52:00,64.4,63.0,29.88,NNE,30,1.0,8.0,95,0.02,,,0.06,0.0,meteohub,2013-06-19 02:52:00,
2013-06-18 22:57:00,64.2,62.8,29.88,NNE,25,3.0,8.0,95,0.02,,,0.06,0.0,meteohub,2013-06-19 02:57:00,
2013-06-18 23:02:00,64.2,62.8,29.88,NE,44,3.0,10.0,95,0.01,,,0.06,0.0,meteohub,2013-06-19 03:02:00,
2013-06-18 23:07:00,64.0,62.6,29.87,NE,49,4.0,10.0,95,0.01,,,0.06,0.0,meteohub,2013-06-19 03:07:00,
2013-06-18 23:12:00,63.9,62.4,29.87,ENE,57,3.0,14.0,95,0.01,,,0.06,0.0,meteohub,2013-06-19 03:12:00,
2013-06-18 23:17:00,63.7,61.9,29.87,NE,40,7.0,14.0,94,0.01,,,0.06,0.0,meteohub,2013-06-19 03:17:00,
2013-06-18 23:22:00,63.5,61.7,29.87,East,96,6.0,14.0,94,0.01,,,0.06,0.0,meteohub,2013-06-19 03:22:00,
2013-06-18 23:27:00,63.3,61.5,29.87,ENE,70,7.0,12.0,94,0.00,,,0.06,0.0,meteohub,2013-06-19 03:27:00,
2013-06-18 23:32:00,63.1,61.3,29.87,ENE,74,3.0,12.0,94,0.00,,,0.06,0.0,meteohub,2013-06-19 03:32:00,
2013-06-18 23:37:00,63.0,61.2,29.87,ENE,66,0.0,10.0,94,0.00,,,0.06,0.0,meteohub,2013-06-19 03:37:00,
2013-06-18 23:42:00,63.0,61.2,29.87,NE,53,3.0,8.0,94,0.00,,,0.06,0.0,meteohub,2013-06-19 03:42:00,
2013-06-18 23:47:00,63.0,61.2,29.88,ENE,57,6.0,7.0,94,0.00,,,0.06,0.0,meteohub,2013-06-19 03:47:00,
2013-06-18 23:52:00,62.8,61.0,29.88,NNE,30,4.0,6.0,94,0.00,,,0.06,0.0,meteohub,2013-06-19 03:52:00,
2013-06-18 23:57:00,62.8,61.0,29.87,North,5,4.0,7.0,94,0.00,,,0.06,0.0,meteohub,2013-06-19 03:57:00,